Aérodrome :
LOGIN :

S'inscrire | Disclaimer

   EN    FR    IT 

 










Légende :    VFR   VFR Marginal   IFR   IFR Intensif   IFR Très Intensif
Visi : 
Plafond : 
>= 8 km
>= 3000ft
5 à 8 km
1000 à 3000 ft
1500m à 5 km
500 à 1000 ft
800 à 1500m
200 à 500 ft
< 800m
< 200 ft
Symboles :   Orages  Brouillard  Fortes neiges  Fortes précipitations  Vent > 20 kt
SIGMETs :   Divers  Orages  Givrage  Turbulence  Onde Orograph.  Cendres Volcan.







- Altitude de l'aérodrome : 125 ft
- Code IATA : MGL


EDLN - Mönchengladbach

DERNIER METAR :
  • 171120Z 28005KT 230V310 2700 BR BKN003 02/02 Q1023

METARs EXPIRÉS :
  • 171050Z 26005KT 200V320 2500 BR BKN003 02/02 Q1024
  • 171020Z 27004KT 210V360 2600 BR BKN003 02/02 Q1024
  • 170950Z VRB04KT 2500 BR BKN003 02/01 Q1023
  • 170920Z 27005KT 230V310 2400 BR BKN003 02/01 Q1023
  • 170850Z 27004KT 240V310 2300 BR BKN003 01/01 Q1023

TAF TAF EDLN
Valide du 17 à 12h jusqu'au 17 à 21h UTC


171100Z 1712/1721 26006KT 2500 BR BKN003
BECMG 1712/1715 6000 BKN007
BECMG 1716/1719 20006KT BKN020
Pas de NOTAMs connus pour ce terrain.



MET'MAP, la Météo Aéronautique d'un coup d'oeil ! - Copyright ORBIFLY Décembre 2007 - Disclaimer

ORBIFLY MET'MAP TEAM :

Programmation & Développement : Alexandra Zaïnal
Conception & Développement : Baudouin d'Aumeries
Co-Programmation & Développement : Marc-Olivier Méhu
Soutien technique & logistique : Manuel Goepfert

Contact : metmap@orbifly.com




SOURCES & CREDITS :

   NOAA